Butes — A8UR6 — position and weather

sailwx.info

Track history (hours):
 
Tides and Currents Weather Stations Pressure Air Temp Water Temp Dewpoint Dewpoint Depression Visibility Wind Speed Wind Dir Waves Ship Positions

Butes

Last reported at 2017-Jan-13 19:06 UTC. Time now 2017-Jan-17 21:31 UTC.
Position N 50°27' W 000°25'.

Length 90 m; draft 5.5 m.

Type: Cargo ship. MMSI: 636091937.

Date/timePositionNaut miles runAvg speedWind from/ knotsBaromVisibWave heightAir tempDewpointWater temp
2017-Jan-13 19:06N 50°27' W 000°25'4 6.5
2017-Jan-13 18:33N 50°28' W 000°20'8 8.0
2017-Jan-13 17:33N 50°30' W 000°08'9 8.9
2017-Jan-13 16:32N 50°33' E 000°06'9 9.3
2017-Jan-13 15:34N 50°35' E 000°20'9 8.7
2017-Jan-13 14:32N 50°37' E 000°33'8 7.9
2017-Jan-13 13:34N 50°42' E 000°43'24 8.0
2017-Jan-13 10:33N 50°57' E 001°13'10 9.7
2017-Jan-13 09:34N 51°03' E 001°25'1312.5
2017-Jan-13 08:34N 51°12' E 001°39'1313.3
2017-Jan-13 07:33N 51°25' E 001°44'9 9.3
2017-Jan-13 06:34N 51°28' E 001°30'1211.5
2017-Jan-13 05:33N 51°29' E 001°11'1211.9
2017-Jan-13 04:31N 51°29' E 000°52'1313.7
2017-Jan-13 03:34N 51°30' E 000°31'10 9.7
2017-Jan-13 02:33N 51°28' E 000°15'9 8.3
2017-Jan-13 01:30N 51°30' E 000°02'0 0.0
2017-Jan-11 02:06N 51°30' E 000°01'1 0.3
2017-Jan-10 23:33N 51°30' E 000°03'7 6.7
2017-Jan-10 22:34N 51°29' E 000°13'8 7.6
2017-Jan-10 21:34N 51°27' E 000°25'9 8.9
2017-Jan-10 20:33N 51°30' E 000°38'1010.1
2017-Jan-10 19:33N 51°30' E 000°54'3 3.0
2017-Jan-10 18:29N 51°31' E 000°60'0 0.1
2017-Jan-10 17:32N 51°31' E 000°60'0 0.0
2017-Jan-10 15:29N 51°31' E 000°60'0 0.0
2017-Jan-10 11:29N 51°31' E 000°60'0 0.0
2017-Jan-10 10:20N 51°31' E 000°60'0 0.0
2017-Jan-10 08:30N 51°31' E 000°60'1 1.1
2017-Jan-10 07:33N 51°30' E 001°00'2210.8
2017-Jan-10 05:34N 51°30' E 001°35'1111.0
2017-Jan-10 04:33N 51°33' E 001°52'76 8.1
2017-Jan-09 19:14N 52°03' E 003°44'710.5
2017-Jan-09 18:33N 52°02' E 003°56'1312.6
2017-Jan-09 17:33N 51°56' E 004°13'1010.2
2017-Jan-09 16:33N 51°50' E 004°27'9 8.9
2017-Jan-09 15:33N 51°44' E 004°38'3 0.3
2017-Jan-09 06:27N 51°42' E 004°37'0 0.0
2017-Jan-09 04:06N 51°42' E 004°37'0 0.0
2017-Jan-09 01:06N 51°42' E 004°37'0 0.0
2017-Jan-08 21:15N 51°42' E 004°37'0 0.0
2017-Jan-08 20:24N 51°42' E 004°37'0 0.0
2017-Jan-08 18:30N 51°42' E 004°37'0 0.0
2017-Jan-08 16:27N 51°42' E 004°37'0 0.0
2017-Jan-08 15:30N 51°42' E 004°37'0 0.0
2017-Jan-08 14:30N 51°42' E 004°37'0 0.0
2017-Jan-08 12:30N 51°42' E 004°37'0 0.0
2017-Jan-08 10:18N 51°42' E 004°37'0 0.0
2017-Jan-08 09:18N 51°42' E 004°37'0 0.0
2017-Jan-08 08:18N 51°42' E 004°37'0 0.0
2017-Jan-08 07:06N 51°42' E 004°37'0 0.0
2017-Jan-08 06:18N 51°42' E 004°37'0 0.0
2017-Jan-08 05:30N 51°42' E 004°37'0 0.0
2017-Jan-08 04:33N 51°42' E 004°37'0 0.0
2017-Jan-08 03:24N 51°42' E 004°37'0 0.0
2017-Jan-08 02:27N 51°42' E 004°37'0 0.0
2017-Jan-08 01:30N 51°42' E 004°37'0 0.0
2017-Jan-08 00:24N 51°42' E 004°37'0 0.0
2017-Jan-07 23:27N 51°42' E 004°37'0 0.0
2017-Jan-07 22:33N 51°42' E 004°37'0 0.0
2017-Jan-07 21:30N 51°42' E 004°37'0 0.0
2017-Jan-07 20:33N 51°42' E 004°37'0 0.0
2017-Jan-07 19:33N 51°42' E 004°37'0 0.0
2017-Jan-07 18:24N 51°42' E 004°37'0 0.0
2017-Jan-07 17:33N 51°42' E 004°37'0 0.0
2017-Jan-07 15:27N 51°42' E 004°37'0 0.0
2017-Jan-07 14:30N 51°42' E 004°37'0 0.0
2017-Jan-07 13:30N 51°42' E 004°37'0 0.0
2017-Jan-07 12:18N 51°42' E 004°37'0 0.0
2017-Jan-07 11:33N 51°42' E 004°37'0 0.0
2017-Jan-07 10:12N 51°42' E 004°37'0 0.0
2017-Jan-07 09:30N 51°42' E 004°37'0 0.0
2017-Jan-07 07:18N 51°42' E 004°37'3 4.3
2017-Jan-07 06:33N 51°45' E 004°38'7 6.7
2017-Jan-07 05:33N 51°50' E 004°31'8 7.7
2017-Jan-07 04:33N 51°53' E 004°20'8 7.8
2017-Jan-07 03:33N 51°57' E 004°09'9 8.7
2017-Jan-07 02:33N 52°00' E 003°56'7 7.4
2017-Jan-07 01:33N 52°05' E 003°47'208 8.3
2017-Jan-06 00:29N 53°57' E 008°39'1011.2
2017-Jan-05 23:33N 53°51' E 008°54'9 9.2
2017-Jan-05 22:33N 53°54' E 009°09'0 0.2
2017-Jan-05 21:33N 53°54' E 009°09'0 0.3
2017-Jan-05 20:34N 53°54' E 009°09'4 4.0
2017-Jan-05 19:33N 53°57' E 009°14'8 8.0
2017-Jan-05 18:33N 54°04' E 009°19'53 4.4
2017-Jan-05 06:28N 54°34' E 010°34'8 9.4
2017-Jan-05 05:33N 54°35' E 010°49'9 9.3
2017-Jan-05 04:33N 54°36' E 011°05'9 9.0
2017-Jan-05 03:33N 54°34' E 011°20'9 9.4
2017-Jan-05 02:33N 54°30' E 011°35'90 8.8
2017-Jan-04 16:24N 54°41' E 014°08'10 7.5
2017-Jan-04 15:05N 54°38' E 014°24'16 8.2
2017-Jan-04 13:09N 54°42' E 014°50'5 8.1
2017-Jan-04 12:33N 54°44' E 014°58'  
Track history (hours):
 
Tides and Currents Weather Stations Pressure Air Temp Water Temp Dewpoint Dewpoint Depression Visibility Wind Speed Wind Dir Waves Ship Positions

Butes

Last reported at 2017-Jan-13 19:06 UTC. Time now 2017-Jan-17 21:31 UTC.
Position N 50°27' W 000°25'.

Length 90 m; draft 5.5 m.

Type: Cargo ship. MMSI: 636091937.

Date/timePositionNaut miles runAvg speedWind from/ knotsBaromVisibWave heightAir tempDewpointWater temp
2017-Jan-13 19:06N 50°27' W 000°25'4 6.5
2017-Jan-13 18:33N 50°28' W 000°20'8 8.0
2017-Jan-13 17:33N 50°30' W 000°08'9 8.9
2017-Jan-13 16:32N 50°33' E 000°06'9 9.3
2017-Jan-13 15:34N 50°35' E 000°20'9 8.7
2017-Jan-13 14:32N 50°37' E 000°33'8 7.9
2017-Jan-13 13:34N 50°42' E 000°43'24 8.0
2017-Jan-13 10:33N 50°57' E 001°13'10 9.7
2017-Jan-13 09:34N 51°03' E 001°25'1312.5
2017-Jan-13 08:34N 51°12' E 001°39'1313.3
2017-Jan-13 07:33N 51°25' E 001°44'9 9.3
2017-Jan-13 06:34N 51°28' E 001°30'1211.5
2017-Jan-13 05:33N 51°29' E 001°11'1211.9
2017-Jan-13 04:31N 51°29' E 000°52'1313.7
2017-Jan-13 03:34N 51°30' E 000°31'10 9.7
2017-Jan-13 02:33N 51°28' E 000°15'9 8.3
2017-Jan-13 01:30N 51°30' E 000°02'0 0.0
2017-Jan-11 02:06N 51°30' E 000°01'1 0.3
2017-Jan-10 23:33N 51°30' E 000°03'7 6.7
2017-Jan-10 22:34N 51°29' E 000°13'8 7.6
2017-Jan-10 21:34N 51°27' E 000°25'9 8.9
2017-Jan-10 20:33N 51°30' E 000°38'1010.1
2017-Jan-10 19:33N 51°30' E 000°54'3 3.0
2017-Jan-10 18:29N 51°31' E 000°60'0 0.1
2017-Jan-10 17:32N 51°31' E 000°60'0 0.0
2017-Jan-10 15:29N 51°31' E 000°60'0 0.0
2017-Jan-10 11:29N 51°31' E 000°60'0 0.0
2017-Jan-10 10:20N 51°31' E 000°60'0 0.0
2017-Jan-10 08:30N 51°31' E 000°60'1 1.1
2017-Jan-10 07:33N 51°30' E 001°00'2210.8
2017-Jan-10 05:34N 51°30' E 001°35'1111.0
2017-Jan-10 04:33N 51°33' E 001°52'76 8.1
2017-Jan-09 19:14N 52°03' E 003°44'710.5
2017-Jan-09 18:33N 52°02' E 003°56'1312.6
2017-Jan-09 17:33N 51°56' E 004°13'1010.2
2017-Jan-09 16:33N 51°50' E 004°27'9 8.9
2017-Jan-09 15:33N 51°44' E 004°38'3 0.3
2017-Jan-09 06:27N 51°42' E 004°37'0 0.0
2017-Jan-09 04:06N 51°42' E 004°37'0 0.0
2017-Jan-09 01:06N 51°42' E 004°37'0 0.0
2017-Jan-08 21:15N 51°42' E 004°37'0 0.0
2017-Jan-08 20:24N 51°42' E 004°37'0 0.0
2017-Jan-08 18:30N 51°42' E 004°37'0 0.0
2017-Jan-08 16:27N 51°42' E 004°37'0 0.0
2017-Jan-08 15:30N 51°42' E 004°37'0 0.0
2017-Jan-08 14:30N 51°42' E 004°37'0 0.0
2017-Jan-08 12:30N 51°42' E 004°37'0 0.0
2017-Jan-08 10:18N 51°42' E 004°37'0 0.0
2017-Jan-08 09:18N 51°42' E 004°37'0 0.0
2017-Jan-08 08:18N 51°42' E 004°37'0 0.0
2017-Jan-08 07:06N 51°42' E 004°37'0 0.0
2017-Jan-08 06:18N 51°42' E 004°37'0 0.0
2017-Jan-08 05:30N 51°42' E 004°37'0 0.0
2017-Jan-08 04:33N 51°42' E 004°37'0 0.0
2017-Jan-08 03:24N 51°42' E 004°37'0 0.0
2017-Jan-08 02:27N 51°42' E 004°37'0 0.0
2017-Jan-08 01:30N 51°42' E 004°37'0 0.0
2017-Jan-08 00:24N 51°42' E 004°37'0 0.0
2017-Jan-07 23:27N 51°42' E 004°37'0 0.0
2017-Jan-07 22:33N 51°42' E 004°37'0 0.0
2017-Jan-07 21:30N 51°42' E 004°37'0 0.0
2017-Jan-07 20:33N 51°42' E 004°37'0 0.0
2017-Jan-07 19:33N 51°42' E 004°37'0 0.0
2017-Jan-07 18:24N 51°42' E 004°37'0 0.0
2017-Jan-07 17:33N 51°42' E 004°37'0 0.0
2017-Jan-07 15:27N 51°42' E 004°37'0 0.0
2017-Jan-07 14:30N 51°42' E 004°37'0 0.0
2017-Jan-07 13:30N 51°42' E 004°37'0 0.0
2017-Jan-07 12:18N 51°42' E 004°37'0 0.0
2017-Jan-07 11:33N 51°42' E 004°37'0 0.0
2017-Jan-07 10:12N 51°42' E 004°37'0 0.0
2017-Jan-07 09:30N 51°42' E 004°37'0 0.0
2017-Jan-07 07:18N 51°42' E 004°37'3 4.3
2017-Jan-07 06:33N 51°45' E 004°38'7 6.7
2017-Jan-07 05:33N 51°50' E 004°31'8 7.7
2017-Jan-07 04:33N 51°53' E 004°20'8 7.8
2017-Jan-07 03:33N 51°57' E 004°09'9 8.7
2017-Jan-07 02:33N 52°00' E 003°56'7 7.4
2017-Jan-07 01:33N 52°05' E 003°47'208 8.3
2017-Jan-06 00:29N 53°57' E 008°39'1011.2
2017-Jan-05 23:33N 53°51' E 008°54'9 9.2
2017-Jan-05 22:33N 53°54' E 009°09'0 0.2
2017-Jan-05 21:33N 53°54' E 009°09'0 0.3
2017-Jan-05 20:34N 53°54' E 009°09'4 4.0
2017-Jan-05 19:33N 53°57' E 009°14'8 8.0
2017-Jan-05 18:33N 54°04' E 009°19'53 4.4
2017-Jan-05 06:28N 54°34' E 010°34'8 9.4
2017-Jan-05 05:33N 54°35' E 010°49'9 9.3
2017-Jan-05 04:33N 54°36' E 011°05'9 9.0
2017-Jan-05 03:33N 54°34' E 011°20'9 9.4
2017-Jan-05 02:33N 54°30' E 011°35'90 8.8
2017-Jan-04 16:24N 54°41' E 014°08'10 7.5
2017-Jan-04 15:05N 54°38' E 014°24'16 8.2
2017-Jan-04 13:09N 54°42' E 014°50'5 8.1
2017-Jan-04 12:33N 54°44' E 014°58'  

Dump ship's entire track history